sensor_id;sensor_type;location;lat;lon;timestamp;pressure;altitude;pressure_sealevel;temperature;humidity
44481;BME280;30184;42.018;23.670;2023-05-14T00:00:07;92030.88;;;12.47;76.89
44481;BME280;30184;42.018;23.670;2023-05-14T00:02:36;92027.81;;;12.45;76.35
44481;BME280;30184;42.018;23.670;2023-05-14T00:05:06;92027.03;;;12.45;75.98
44481;BME280;30184;42.018;23.670;2023-05-14T00:07:35;92032.50;;;12.45;76.22
44481;BME280;30184;42.018;23.670;2023-05-14T00:10:05;92023.00;;;12.37;76.35
44481;BME280;30184;42.018;23.670;2023-05-14T00:12:34;92029.88;;;12.41;76.33
44481;BME280;30184;42.018;23.670;2023-05-14T00:15:06;92021.03;;;12.37;76.18
44481;BME280;30184;42.018;23.670;2023-05-14T00:17:35;91970.69;;;12.00;75.90
44481;BME280;30184;42.018;23.670;2023-05-14T00:20:06;92016.88;;;12.32;75.90
44481;BME280;30184;42.018;23.670;2023-05-14T00:22:35;92011.94;;;12.27;75.96
44481;BME280;30184;42.018;23.670;2023-05-14T00:25:06;92007.28;;;12.28;76.68
44481;BME280;30184;42.018;23.670;2023-05-14T00:27:35;91972.22;;;12.01;77.23
44481;BME280;30184;42.018;23.670;2023-05-14T00:30:07;92002.78;;;12.21;77.55
44481;BME280;30184;42.018;23.670;2023-05-14T00:32:36;92004.06;;;12.17;77.49
44481;BME280;30184;42.018;23.670;2023-05-14T00:35:05;92005.25;;;12.16;77.34
44481;BME280;30184;42.018;23.670;2023-05-14T00:37:35;91945.50;;;11.83;77.29
44481;BME280;30184;42.018;23.670;2023-05-14T00:40:05;92002.09;;;12.17;77.27
44481;BME280;30184;42.018;23.670;2023-05-14T00:42:35;91996.25;;;12.19;77.29
44481;BME280;30184;42.018;23.670;2023-05-14T00:45:07;91992.75;;;12.18;77.29
44481;BME280;30184;42.018;23.670;2023-05-14T00:47:36;92012.34;;;11.97;77.10
44481;BME280;30184;42.018;23.670;2023-05-14T00:50:07;91996.59;;;12.21;77.66
44481;BME280;30184;42.018;23.670;2023-05-14T00:52:37;91992.00;;;12.18;77.82
44481;BME280;30184;42.018;23.670;2023-05-14T00:55:07;91953.22;;;11.85;78.04
44481;BME280;30184;42.018;23.670;2023-05-14T00:57:38;91987.50;;;12.11;78.29
44481;BME280;30184;42.018;23.670;2023-05-14T01:00:10;91939.94;;;11.71;78.40
44481;BME280;30184;42.018;23.670;2023-05-14T01:02:39;91983.44;;;12.03;78.72
44481;BME280;30184;42.018;23.670;2023-05-14T01:05:08;91978.69;;;11.91;78.60
44481;BME280;30184;42.018;23.670;2023-05-14T01:07:45;91974.88;;;12.05;78.49
44481;BME280;30184;42.018;23.670;2023-05-14T01:10:21;91946.88;;;11.75;78.72
44481;BME280;30184;42.018;23.670;2023-05-14T01:12:59;91979.53;;;12.04;78.86
44481;BME280;30184;42.018;23.670;2023-05-14T01:15:32;91944.03;;;11.79;79.32
44481;BME280;30184;42.018;23.670;2023-05-14T01:18:04;91985.41;;;12.03;79.53
44481;BME280;30184;42.018;23.670;2023-05-14T01:20:35;91977.66;;;12.01;79.42
44481;BME280;30184;42.018;23.670;2023-05-14T01:23:06;91946.09;;;11.75;80.40
44481;BME280;30184;42.018;23.670;2023-05-14T01:25:36;91982.00;;;11.99;80.55
44481;BME280;30184;42.018;23.670;2023-05-14T01:28:09;91968.34;;;11.86;81.33
44481;BME280;30184;42.018;23.670;2023-05-14T01:30:53;91977.94;;;11.90;81.59
44481;BME280;30184;42.018;23.670;2023-05-14T01:33:26;91981.59;;;11.84;82.74
44481;BME280;30184;42.018;23.670;2023-05-14T01:35:57;91978.19;;;11.80;83.17
44481;BME280;30184;42.018;23.670;2023-05-14T01:38:28;91976.81;;;11.72;83.49
44481;BME280;30184;42.018;23.670;2023-05-14T01:41:01;92001.38;;;11.68;84.04
44481;BME280;30184;42.018;23.670;2023-05-14T01:43:31;91989.06;;;11.64;85.22
44481;BME280;30184;42.018;23.670;2023-05-14T01:46:00;91984.88;;;11.59;85.92
44481;BME280;30184;42.018;23.670;2023-05-14T01:48:31;91972.00;;;11.47;86.61
44481;BME280;30184;42.018;23.670;2023-05-14T01:51:00;91995.09;;;11.55;87.27
44481;BME280;30184;42.018;23.670;2023-05-14T01:53:31;91993.63;;;11.50;88.22
44481;BME280;30184;42.018;23.670;2023-05-14T01:56:01;91983.03;;;11.40;89.31
44481;BME280;30184;42.018;23.670;2023-05-14T01:58:31;91975.44;;;11.31;90.46
44481;BME280;30184;42.018;23.670;2023-05-14T02:01:00;91982.69;;;11.38;90.61
44481;BME280;30184;42.018;23.670;2023-05-14T02:03:29;91992.44;;;11.19;90.54
44481;BME280;30184;42.018;23.670;2023-05-14T02:05:58;91987.84;;;11.32;90.71
44481;BME280;30184;42.018;23.670;2023-05-14T02:08:27;91982.00;;;11.34;91.05
44481;BME280;30184;42.018;23.670;2023-05-14T02:10:58;91976.97;;;11.32;92.14
44481;BME280;30184;42.018;23.670;2023-05-14T02:13:27;91985.91;;;11.33;92.29
44481;BME280;30184;42.018;23.670;2023-05-14T02:15:56;91985.56;;;11.31;92.19
44481;BME280;30184;42.018;23.670;2023-05-14T02:18:25;91996.09;;;11.29;91.89
44481;BME280;30184;42.018;23.670;2023-05-14T02:20:54;92003.13;;;11.26;91.85
44481;BME280;30184;42.018;23.670;2023-05-14T02:23:24;91990.75;;;11.25;92.25
44481;BME280;30184;42.018;23.670;2023-05-14T02:25:59;92000.00;;;11.28;92.73
44481;BME280;30184;42.018;23.670;2023-05-14T02:28:28;91954.03;;;11.01;93.11
44481;BME280;30184;42.018;23.670;2023-05-14T02:30:57;92010.09;;;11.27;93.10
44481;BME280;30184;42.018;23.670;2023-05-14T02:33:27;92006.19;;;11.28;93.11
44481;BME280;30184;42.018;23.670;2023-05-14T02:35:56;92008.16;;;11.28;93.04
44481;BME280;30184;42.018;23.670;2023-05-14T02:38:25;91999.47;;;11.16;93.16
44481;BME280;30184;42.018;23.670;2023-05-14T02:40:56;92007.81;;;11.26;93.12
44481;BME280;30184;42.018;23.670;2023-05-14T02:43:26;92017.72;;;11.16;93.33
44481;BME280;30184;42.018;23.670;2023-05-14T02:45:55;92014.34;;;11.28;93.42
44481;BME280;30184;42.018;23.670;2023-05-14T02:48:25;92015.53;;;11.27;92.98
44481;BME280;30184;42.018;23.670;2023-05-14T02:50:54;91911.88;;;10.60;92.76
44481;BME280;30184;42.018;23.670;2023-05-14T02:53:23;92017.06;;;11.28;92.93
44481;BME280;30184;42.018;23.670;2023-05-14T02:55:52;92014.34;;;11.28;92.82
44481;BME280;30184;42.018;23.670;2023-05-14T02:58:21;92009.69;;;11.29;92.94
44481;BME280;30184;42.018;23.670;2023-05-14T03:00:51;91953.88;;;10.92;93.07
44481;BME280;30184;42.018;23.670;2023-05-14T03:03:20;92015.53;;;11.27;93.27
44481;BME280;30184;42.018;23.670;2023-05-14T03:05:50;91965.03;;;10.94;93.33
44481;BME280;30184;42.018;23.670;2023-05-14T03:08:19;92010.94;;;11.24;93.86
44481;BME280;30184;42.018;23.670;2023-05-14T03:10:48;92017.91;;;11.25;93.77
44481;BME280;30184;42.018;23.670;2023-05-14T03:13:17;92007.19;;;11.18;93.81
44481;BME280;30184;42.018;23.670;2023-05-14T03:15:47;92019.84;;;11.25;93.58
44481;BME280;30184;42.018;23.670;2023-05-14T03:18:23;92013.66;;;11.24;93.66
44481;BME280;30184;42.018;23.670;2023-05-14T03:20:52;92007.03;;;11.25;93.79
44481;BME280;30184;42.018;23.670;2023-05-14T03:23:21;91947.31;;;10.89;93.81
44481;BME280;30184;42.018;23.670;2023-05-14T03:25:51;91993.44;;;11.25;93.70
44481;BME280;30184;42.018;23.670;2023-05-14T03:28:20;91998.88;;;11.25;93.71
44481;BME280;30184;42.018;23.670;2023-05-14T03:30:51;91985.97;;;11.13;93.33
44481;BME280;30184;42.018;23.670;2023-05-14T03:33:20;91921.34;;;10.72;93.24
44481;BME280;30184;42.018;23.670;2023-05-14T03:35:50;92030.31;;;11.26;93.60
44481;BME280;30184;42.018;23.670;2023-05-14T03:38:20;92005.84;;;11.26;93.83
44481;BME280;30184;42.018;23.670;2023-05-14T03:40:49;92001.19;;;11.27;94.03
44481;BME280;30184;42.018;23.670;2023-05-14T03:43:18;91988.03;;;11.25;94.52
44481;BME280;30184;42.018;23.670;2023-05-14T03:45:48;91989.13;;;11.28;94.61
44481;BME280;30184;42.018;23.670;2023-05-14T03:48:19;91991.50;;;11.26;94.77
44481;BME280;30184;42.018;23.670;2023-05-14T03:50:48;92001.94;;;11.27;94.87
44481;BME280;30184;42.018;23.670;2023-05-14T03:53:19;91903.38;;;10.58;94.59
44481;BME280;30184;42.018;23.670;2023-05-14T03:55:48;91996.53;;;11.27;94.76
44481;BME280;30184;42.018;23.670;2023-05-14T03:58:17;92007.72;;;11.29;94.48
44481;BME280;30184;42.018;23.670;2023-05-14T04:00:46;92015.88;;;11.29;94.34
44481;BME280;30184;42.018;23.670;2023-05-14T04:03:15;92016.19;;;11.31;94.24
44481;BME280;30184;42.018;23.670;2023-05-14T04:05:44;92011.69;;;11.25;94.23
44481;BME280;30184;42.018;23.670;2023-05-14T04:08:14;92030.56;;;11.32;94.24
44481;BME280;30184;42.018;23.670;2023-05-14T04:10:44;92028.28;;;11.30;94.58
44481;BME280;30184;42.018;23.670;2023-05-14T04:13:13;92027.53;;;11.30;94.54
44481;BME280;30184;42.018;23.670;2023-05-14T04:15:43;92035.66;;;11.30;94.33
44481;BME280;30184;42.018;23.670;2023-05-14T04:18:13;92030.56;;;11.32;94.46
44481;BME280;30184;42.018;23.670;2023-05-14T04:20:42;92039.81;;;11.34;94.51
44481;BME280;30184;42.018;23.670;2023-05-14T04:23:11;91990.63;;;11.12;94.48
44481;BME280;30184;42.018;23.670;2023-05-14T04:25:40;92034.66;;;11.40;94.61
44481;BME280;30184;42.018;23.670;2023-05-14T04:28:11;92033.44;;;11.41;94.52
44481;BME280;30184;42.018;23.670;2023-05-14T04:30:40;92050.53;;;11.41;94.24
44481;BME280;30184;42.018;23.670;2023-05-14T04:33:09;92045.09;;;11.41;94.00
44481;BME280;30184;42.018;23.670;2023-05-14T04:35:38;92051.28;;;11.42;94.04
44481;BME280;30184;42.018;23.670;2023-05-14T04:38:07;92048.56;;;11.42;94.25
44481;BME280;30184;42.018;23.670;2023-05-14T04:40:37;92068.38;;;11.42;94.41
44481;BME280;30184;42.018;23.670;2023-05-14T04:43:08;92055.97;;;11.41;94.34
44481;BME280;30184;42.018;23.670;2023-05-14T04:45:38;92060.63;;;11.41;94.44
44481;BME280;30184;42.018;23.670;2023-05-14T04:48:07;92080.75;;;11.43;94.58
44481;BME280;30184;42.018;23.670;2023-05-14T04:50:37;92066.00;;;11.44;94.71
44481;BME280;30184;42.018;23.670;2023-05-14T04:53:06;92051.56;;;11.47;95.01
44481;BME280;30184;42.018;23.670;2023-05-14T04:55:35;92056.66;;;11.45;94.96
44481;BME280;30184;42.018;23.670;2023-05-14T04:58:04;92051.22;;;11.45;95.20
44481;BME280;30184;42.018;23.670;2023-05-14T05:00:33;92057.84;;;11.44;95.30
44481;BME280;30184;42.018;23.670;2023-05-14T05:03:04;92052.75;;;11.46;95.41
44481;BME280;30184;42.018;23.670;2023-05-14T05:05:33;92040.53;;;11.38;95.33
44481;BME280;30184;42.018;23.670;2023-05-14T05:08:03;92055.13;;;11.44;95.28
44481;BME280;30184;42.018;23.670;2023-05-14T05:10:32;92050.47;;;11.45;95.22
44481;BME280;30184;42.018;23.670;2023-05-14T05:13:01;92049.28;;;11.46;95.57
44481;BME280;30184;42.018;23.670;2023-05-14T05:15:30;92055.13;;;11.44;96.03
44481;BME280;30184;42.018;23.670;2023-05-14T05:17:59;92065.16;;;11.47;96.31
44481;BME280;30184;42.018;23.670;2023-05-14T05:20:30;92075.63;;;11.49;96.68
44481;BME280;30184;42.018;23.670;2023-05-14T05:22:59;92034.00;;;11.16;96.85
44481;BME280;30184;42.018;23.670;2023-05-14T05:25:28;92052.03;;;11.26;96.93
44481;BME280;30184;42.018;23.670;2023-05-14T05:27:57;92124.84;;;11.51;97.21
44481;BME280;30184;42.018;23.670;2023-05-14T05:30:27;92101.16;;;11.51;97.49
44481;BME280;30184;42.018;23.670;2023-05-14T05:32:56;92100.81;;;11.49;97.33
44481;BME280;30184;42.018;23.670;2023-05-14T05:35:26;92110.50;;;11.50;97.72
44481;BME280;30184;42.018;23.670;2023-05-14T05:37:56;92078.44;;;11.26;98.18
44481;BME280;30184;42.018;23.670;2023-05-14T05:40:27;92108.22;;;11.49;98.96
44481;BME280;30184;42.018;23.670;2023-05-14T05:42:56;92103.88;;;11.51;98.90
44481;BME280;30184;42.018;23.670;2023-05-14T05:45:25;92102.44;;;11.47;98.70
44481;BME280;30184;42.018;23.670;2023-05-14T05:47:54;92074.94;;;10.89;98.60
44481;BME280;30184;42.018;23.670;2023-05-14T05:50:23;92115.94;;;11.50;99.32
44481;BME280;30184;42.018;23.670;2023-05-14T05:52:52;92124.84;;;11.51;99.33
44481;BME280;30184;42.018;23.670;2023-05-14T05:55:23;92151.25;;;11.50;99.71
44481;BME280;30184;42.018;23.670;2023-05-14T05:57:52;92111.69;;;11.49;100.00
44481;BME280;30184;42.018;23.670;2023-05-14T06:00:21;92148.53;;;11.50;100.00
44481;BME280;30184;42.018;23.670;2023-05-14T06:02:52;92116.06;;;11.27;100.00
44481;BME280;30184;42.018;23.670;2023-05-14T06:05:21;92143.56;;;11.49;100.00
44481;BME280;30184;42.018;23.670;2023-05-14T06:07:51;92134.97;;;11.50;100.00
44481;BME280;30184;42.018;23.670;2023-05-14T06:10:21;92158.25;;;11.51;100.00
44481;BME280;30184;42.018;23.670;2023-05-14T06:12:51;92125.38;;;11.46;100.00
44481;BME280;30184;42.018;23.670;2023-05-14T06:15:20;92118.66;;;11.50;100.00
44481;BME280;30184;42.018;23.670;2023-05-14T06:17:49;92123.66;;;11.52;100.00
44481;BME280;30184;42.018;23.670;2023-05-14T06:20:18;91980.84;;;10.63;100.00
44481;BME280;30184;42.018;23.670;2023-05-14T06:22:47;92115.09;;;11.53;100.00
44481;BME280;30184;42.018;23.670;2023-05-14T06:25:17;92128.69;;;11.53;100.00
44481;BME280;30184;42.018;23.670;2023-05-14T06:27:46;92123.97;;;11.57;100.00
44481;BME280;30184;42.018;23.670;2023-05-14T06:30:16;92144.44;;;11.62;100.00
44481;BME280;30184;42.018;23.670;2023-05-14T06:32:46;92121.72;;;11.52;100.00
44481;BME280;30184;42.018;23.670;2023-05-14T06:35:15;92149.78;;;11.66;100.00
44481;BME280;30184;42.018;23.670;2023-05-14T06:37:44;92106.75;;;11.44;99.77
44481;BME280;30184;42.018;23.670;2023-05-14T06:40:13;92124.56;;;11.65;99.29
44481;BME280;30184;42.018;23.670;2023-05-14T06:42:43;92134.13;;;11.53;99.08
44481;BME280;30184;42.018;23.670;2023-05-14T06:45:12;92101.22;;;11.68;99.41
44481;BME280;30184;42.018;23.670;2023-05-14T06:47:43;92097.16;;;11.76;99.38
44481;BME280;30184;42.018;23.670;2023-05-14T06:50:12;92100.72;;;11.89;99.59
44481;BME280;30184;42.018;23.670;2023-05-14T06:52:41;92101.66;;;11.99;99.44
44481;BME280;30184;42.018;23.670;2023-05-14T06:55:11;92012.16;;;11.55;98.65
44481;BME280;30184;42.018;23.670;2023-05-14T06:57:40;92138.56;;;11.83;98.15
44481;BME280;30184;42.018;23.670;2023-05-14T07:00:11;92087.72;;;12.29;97.25
44481;BME280;30184;42.018;23.670;2023-05-14T07:02:40;92084.75;;;12.40;96.37
44481;BME280;30184;42.018;23.670;2023-05-14T07:05:11;92079.78;;;12.51;95.97
44481;BME280;30184;42.018;23.670;2023-05-14T07:07:40;92083.84;;;12.59;95.34
44481;BME280;30184;42.018;23.670;2023-05-14T07:10:10;92078.97;;;12.66;94.86
44481;BME280;30184;42.018;23.670;2023-05-14T07:12:39;92090.66;;;12.80;93.23
44481;BME280;30184;42.018;23.670;2023-05-14T07:15:09;92084.59;;;12.88;91.92
44481;BME280;30184;42.018;23.670;2023-05-14T07:17:38;92088.56;;;13.00;90.78
44481;BME280;30184;42.018;23.670;2023-05-14T07:20:08;92087.06;;;13.12;90.61
44481;BME280;30184;42.018;23.670;2023-05-14T07:22:39;92080.25;;;13.20;90.02
44481;BME280;30184;42.018;23.670;2023-05-14T07:25:08;92045.31;;;13.02;88.59
44481;BME280;30184;42.018;23.670;2023-05-14T07:27:38;92067.47;;;13.17;87.01
44481;BME280;30184;42.018;23.670;2023-05-14T07:30:07;92064.00;;;13.16;86.43
44481;BME280;30184;42.018;23.670;2023-05-14T07:32:36;92052.41;;;13.12;87.06
44481;BME280;30184;42.018;23.670;2023-05-14T07:35:06;92047.06;;;13.08;88.13
44481;BME280;30184;42.018;23.670;2023-05-14T07:37:35;92065.66;;;13.14;88.72
44481;BME280;30184;42.018;23.670;2023-05-14T07:40:07;92090.16;;;13.14;87.18
44481;BME280;30184;42.018;23.670;2023-05-14T07:42:37;92096.53;;;13.07;86.05
44481;BME280;30184;42.018;23.670;2023-05-14T07:45:07;92097.16;;;12.98;86.11
44481;BME280;30184;42.018;23.670;2023-05-14T07:47:38;92108.47;;;12.84;88.01
44481;BME280;30184;42.018;23.670;2023-05-14T07:50:07;92133.66;;;12.72;89.70
44481;BME280;30184;42.018;23.670;2023-05-14T07:52:37;92103.81;;;12.68;89.92
44481;BME280;30184;42.018;23.670;2023-05-14T07:55:08;92070.78;;;12.38;90.76
44481;BME280;30184;42.018;23.670;2023-05-14T07:57:38;92087.34;;;12.59;91.33
44481;BME280;30184;42.018;23.670;2023-05-14T08:00:08;92060.59;;;12.42;91.50
44481;BME280;30184;42.018;23.670;2023-05-14T08:02:41;92095.97;;;12.70;91.45
44481;BME280;30184;42.018;23.670;2023-05-14T08:05:10;92092.75;;;12.76;91.08
44481;BME280;30184;42.018;23.670;2023-05-14T08:07:39;92098.41;;;12.81;91.33
44481;BME280;30184;42.018;23.670;2023-05-14T08:10:10;92088.09;;;12.60;91.33
44481;BME280;30184;42.018;23.670;2023-05-14T08:12:39;92131.53;;;12.80;91.10
44481;BME280;30184;42.018;23.670;2023-05-14T08:15:09;92114.41;;;12.79;91.32
44481;BME280;30184;42.018;23.670;2023-05-14T08:17:39;92122.28;;;12.77;91.89
44481;BME280;30184;42.018;23.670;2023-05-14T08:20:08;92117.06;;;12.83;91.87
44481;BME280;30184;42.018;23.670;2023-05-14T08:22:38;92117.81;;;12.83;91.82
44481;BME280;30184;42.018;23.670;2023-05-14T08:25:09;92107.19;;;12.73;91.39
44481;BME280;30184;42.018;23.670;2023-05-14T08:27:39;92111.19;;;12.84;91.64
44481;BME280;30184;42.018;23.670;2023-05-14T08:30:09;92109.66;;;12.83;91.67
44481;BME280;30184;42.018;23.670;2023-05-14T08:32:38;92087.19;;;12.79;92.01
44481;BME280;30184;42.018;23.670;2023-05-14T08:35:07;92086.38;;;12.66;92.35
44481;BME280;30184;42.018;23.670;2023-05-14T08:37:37;92095.34;;;12.79;92.17
44481;BME280;30184;42.018;23.670;2023-05-14T08:40:07;92112.13;;;12.78;91.91
44481;BME280;30184;42.018;23.670;2023-05-14T08:42:38;92104.81;;;12.75;92.49
44481;BME280;30184;42.018;23.670;2023-05-14T08:45:11;92104.91;;;12.71;93.25
44481;BME280;30184;42.018;23.670;2023-05-14T08:47:43;92087.09;;;12.83;94.06
44481;BME280;30184;42.018;23.670;2023-05-14T08:50:16;92076.13;;;12.70;94.13
44481;BME280;30184;42.018;23.670;2023-05-14T08:52:48;92028.66;;;12.42;93.42
44481;BME280;30184;42.018;23.670;2023-05-14T08:55:17;92083.19;;;12.84;92.91
44481;BME280;30184;42.018;23.670;2023-05-14T08:57:49;92084.94;;;12.90;92.97
44481;BME280;30184;42.018;23.670;2023-05-14T09:00:18;92086.81;;;12.93;92.55
44481;BME280;30184;42.018;23.670;2023-05-14T09:02:48;92022.63;;;12.51;91.30
44481;BME280;30184;42.018;23.670;2023-05-14T09:05:18;92094.13;;;12.96;91.13
44481;BME280;30184;42.018;23.670;2023-05-14T09:07:48;92090.72;;;12.92;91.63
44481;BME280;30184;42.018;23.670;2023-05-14T09:10:17;92092.25;;;12.93;90.99
44481;BME280;30184;42.018;23.670;2023-05-14T09:12:48;92084.97;;;13.03;91.27
44481;BME280;30184;42.018;23.670;2023-05-14T09:15:18;92097.84;;;13.02;89.94
44481;BME280;30184;42.018;23.670;2023-05-14T09:17:47;92083.78;;;13.04;89.27
44481;BME280;30184;42.018;23.670;2023-05-14T09:20:16;92088.47;;;13.03;89.85
44481;BME280;30184;42.018;23.670;2023-05-14T09:22:46;92074.44;;;13.05;90.31
44481;BME280;30184;42.018;23.670;2023-05-14T09:25:15;92079.63;;;12.99;90.29
44481;BME280;30184;42.018;23.670;2023-05-14T09:27:45;92058.59;;;13.00;90.43
44481;BME280;30184;42.018;23.670;2023-05-14T09:30:18;92079.88;;;13.05;90.14
44481;BME280;30184;42.018;23.670;2023-05-14T09:32:47;92080.03;;;13.14;89.74
44481;BME280;30184;42.018;23.670;2023-05-14T09:35:18;92077.88;;;13.22;89.01
44481;BME280;30184;42.018;23.670;2023-05-14T09:37:49;92079.06;;;13.21;87.92
44481;BME280;30184;42.018;23.670;2023-05-14T09:40:22;92089.13;;;13.07;87.82
44481;BME280;30184;42.018;23.670;2023-05-14T09:42:51;92105.47;;;13.07;87.40
44481;BME280;30184;42.018;23.670;2023-05-14T09:45:22;92099.56;;;12.96;88.13
44481;BME280;30184;42.018;23.670;2023-05-14T09:47:51;92092.34;;;12.90;88.60
44481;BME280;30184;42.018;23.670;2023-05-14T09:50:20;92056.16;;;12.60;87.34
44481;BME280;30184;42.018;23.670;2023-05-14T09:52:50;92070.09;;;12.79;86.83
44481;BME280;30184;42.018;23.670;2023-05-14T09:55:22;92026.56;;;12.62;87.15
44481;BME280;30184;42.018;23.670;2023-05-14T09:57:51;92087.66;;;12.90;86.45
44481;BME280;30184;42.018;23.670;2023-05-14T10:00:23;92100.84;;;12.92;86.97
44481;BME280;30184;42.018;23.670;2023-05-14T10:02:54;92101.97;;;12.94;88.84
44481;BME280;30184;42.018;23.670;2023-05-14T10:05:24;92095.53;;;13.01;88.95
44481;BME280;30184;42.018;23.670;2023-05-14T10:07:56;92069.91;;;12.98;86.84
44481;BME280;30184;42.018;23.670;2023-05-14T10:10:27;92047.34;;;12.98;87.08
44481;BME280;30184;42.018;23.670;2023-05-14T10:13:02;92051.72;;;12.95;87.61
44481;BME280;30184;42.018;23.670;2023-05-14T10:15:37;92044.97;;;12.87;88.21
44481;BME280;30184;42.018;23.670;2023-05-14T10:18:09;92052.09;;;13.10;88.45
44481;BME280;30184;42.018;23.670;2023-05-14T10:20:40;92056.91;;;13.19;87.97
44481;BME280;30184;42.018;23.670;2023-05-14T10:23:10;92058.78;;;13.22;87.25
44481;BME280;30184;42.018;23.670;2023-05-14T10:25:40;91983.16;;;12.84;86.98
44481;BME280;30184;42.018;23.670;2023-05-14T10:28:10;92051.50;;;13.31;85.24
44481;BME280;30184;42.018;23.670;2023-05-14T10:30:43;92081.69;;;13.37;85.49
44481;BME280;30184;42.018;23.670;2023-05-14T10:33:14;92054.00;;;13.64;85.30
44481;BME280;30184;42.018;23.670;2023-05-14T10:35:54;92032.84;;;13.93;86.05
44481;BME280;30184;42.018;23.670;2023-05-14T10:38:28;92040.13;;;14.09;84.71
44481;BME280;30184;42.018;23.670;2023-05-14T10:40:59;92037.47;;;14.18;81.47
44481;BME280;30184;42.018;23.670;2023-05-14T10:43:29;91961.28;;;13.76;81.62
44481;BME280;30184;42.018;23.670;2023-05-14T10:46:00;91981.31;;;13.95;81.81
44481;BME280;30184;42.018;23.670;2023-05-14T10:48:31;91979.13;;;14.03;81.88
44481;BME280;30184;42.018;23.670;2023-05-14T10:51:01;92019.66;;;14.39;84.58
44481;BME280;30184;42.018;23.670;2023-05-14T10:53:35;92016.25;;;14.47;82.39
44481;BME280;30184;42.018;23.670;2023-05-14T10:56:06;91975.47;;;14.18;81.42
44481;BME280;30184;42.018;23.670;2023-05-14T10:58:36;91974.66;;;14.43;80.57
44481;BME280;30184;42.018;23.670;2023-05-14T11:01:09;91993.84;;;14.74;79.11
44481;BME280;30184;42.018;23.670;2023-05-14T11:03:43;92002.78;;;14.75;78.43
44481;BME280;30184;42.018;23.670;2023-05-14T11:06:14;91974.13;;;14.36;78.60
44481;BME280;30184;42.018;23.670;2023-05-14T11:08:44;91996.25;;;14.50;78.90
44481;BME280;30184;42.018;23.670;2023-05-14T11:11:13;91941.94;;;13.83;79.36
44481;BME280;30184;42.018;23.670;2023-05-14T11:13:45;92014.69;;;14.12;79.75
44481;BME280;30184;42.018;23.670;2023-05-14T11:16:17;92012.44;;;13.98;81.70
44481;BME280;30184;42.018;23.670;2023-05-14T11:18:52;92020.72;;;13.81;80.98
44481;BME280;30184;42.018;23.670;2023-05-14T11:21:22;92021.28;;;13.76;83.38
44481;BME280;30184;42.018;23.670;2023-05-14T11:23:53;92021.41;;;13.86;84.49
44481;BME280;30184;42.018;23.670;2023-05-14T11:26:23;92017.59;;;13.70;81.86
44481;BME280;30184;42.018;23.670;2023-05-14T11:28:52;92029.56;;;13.98;81.85
44481;BME280;30184;42.018;23.670;2023-05-14T11:31:24;92048.34;;;13.83;81.83
44481;BME280;30184;42.018;23.670;2023-05-14T11:33:53;92039.94;;;13.91;82.26
44481;BME280;30184;42.018;23.670;2023-05-14T11:36:22;92035.59;;;13.80;82.17
44481;BME280;30184;42.018;23.670;2023-05-14T11:38:51;92040.63;;;13.69;82.98
44481;BME280;30184;42.018;23.670;2023-05-14T11:41:20;92048.25;;;13.49;83.77
44481;BME280;30184;42.018;23.670;2023-05-14T11:43:50;92045.94;;;13.48;83.61
44481;BME280;30184;42.018;23.670;2023-05-14T11:46:19;92052.91;;;13.36;83.45
44481;BME280;30184;42.018;23.670;2023-05-14T11:48:50;92048.22;;;13.24;85.01
44481;BME280;30184;42.018;23.670;2023-05-14T11:51:20;92041.59;;;13.25;85.40
44481;BME280;30184;42.018;23.670;2023-05-14T11:53:49;92041.69;;;13.34;86.13
44481;BME280;30184;42.018;23.670;2023-05-14T11:56:20;91988.00;;;13.05;84.51
44481;BME280;30184;42.018;23.670;2023-05-14T11:58:54;92025.56;;;13.39;84.48
44481;BME280;30184;42.018;23.670;2023-05-14T12:01:24;92019.88;;;13.47;84.16
44481;BME280;30184;42.018;23.670;2023-05-14T12:03:59;91999.81;;;13.40;83.32
44481;BME280;30184;42.018;23.670;2023-05-14T12:06:30;92007.97;;;13.53;83.13
44481;BME280;30184;42.018;23.670;2023-05-14T12:08:59;92007.44;;;13.58;83.92
44481;BME280;30184;42.018;23.670;2023-05-14T12:11:30;92012.13;;;13.58;83.97
44481;BME280;30184;42.018;23.670;2023-05-14T12:14:00;92008.88;;;13.50;84.83
44481;BME280;30184;42.018;23.670;2023-05-14T12:16:29;92003.63;;;13.56;83.37
44481;BME280;30184;42.018;23.670;2023-05-14T12:19:01;92002.88;;;13.55;83.77
44481;BME280;30184;42.018;23.670;2023-05-14T12:21:31;92010.28;;;13.29;84.50
44481;BME280;30184;42.018;23.670;2023-05-14T12:24:02;92021.75;;;13.50;82.57
44481;BME280;30184;42.018;23.670;2023-05-14T12:26:32;91993.28;;;13.51;82.71
44481;BME280;30184;42.018;23.670;2023-05-14T12:29:02;92029.59;;;13.48;82.54
44481;BME280;30184;42.018;23.670;2023-05-14T12:31:34;92002.66;;;13.50;82.15
44481;BME280;30184;42.018;23.670;2023-05-14T12:34:05;91999.81;;;13.40;82.02
44481;BME280;30184;42.018;23.670;2023-05-14T12:36:34;91995.56;;;13.39;82.39
44481;BME280;30184;42.018;23.670;2023-05-14T12:39:04;92003.41;;;13.37;82.18
44481;BME280;30184;42.018;23.670;2023-05-14T12:41:33;91987.94;;;13.34;82.48
44481;BME280;30184;42.018;23.670;2023-05-14T12:44:03;91989.03;;;13.37;83.23
44481;BME280;30184;42.018;23.670;2023-05-14T12:46:32;91986.19;;;13.40;83.97
44481;BME280;30184;42.018;23.670;2023-05-14T12:49:02;91981.94;;;13.39;84.08
44481;BME280;30184;42.018;23.670;2023-05-14T12:51:34;91979.31;;;13.36;84.07
44481;BME280;30184;42.018;23.670;2023-05-14T12:54:04;91872.13;;;12.63;83.40
44481;BME280;30184;42.018;23.670;2023-05-14T12:56:33;91965.81;;;13.32;84.70
44481;BME280;30184;42.018;23.670;2023-05-14T12:59:05;91967.00;;;13.31;84.85
44481;BME280;30184;42.018;23.670;2023-05-14T13:01:36;91973.84;;;13.36;84.49
44481;BME280;30184;42.018;23.670;2023-05-14T13:04:05;91975.38;;;13.37;84.81